createdAt,value
2023-04-02T00:00:36.692Z,89.22
2023-04-02T00:03:44.557Z,88.67
2023-04-02T00:06:46.257Z,92.48
2023-04-02T00:09:47.897Z,92.63
2023-04-02T00:13:16.674Z,90.90
2023-04-02T00:16:23.899Z,90.59
2023-04-02T00:19:49.335Z,91.65
2023-04-02T00:22:51.040Z,93.79
2023-04-02T00:25:58.131Z,94.73
2023-04-02T00:29:02.491Z,94.44
2023-04-02T00:32:04.680Z,94.98
2023-04-02T00:35:23.100Z,95.64
2023-04-02T00:38:31.688Z,94.36
2023-04-02T00:41:36.168Z,92.89
2023-04-02T00:44:49.445Z,92.83
2023-04-02T00:47:52.700Z,92.74
2023-04-02T00:51:08.103Z,91.78
2023-04-02T00:54:15.835Z,90.42
2023-04-02T00:57:25.471Z,90.77
2023-04-02T01:00:36.744Z,91.69
2023-04-02T01:03:43.935Z,91.65
2023-04-02T01:06:51.911Z,92.65
2023-04-02T01:10:27.384Z,92.96
2023-04-02T01:13:37.927Z,93.79
2023-04-02T01:17:18.494Z,92.34
2023-04-02T01:20:29.950Z,93.34
2023-04-02T01:23:56.106Z,92.17
2023-04-02T01:27:21.603Z,93.06
2023-04-02T01:30:38.866Z,92.50
2023-04-02T01:33:41.471Z,93.15
2023-04-02T01:37:09.218Z,93.54
2023-04-02T01:43:44.757Z,93.00
2023-04-02T01:46:48.731Z,93.62
2023-04-02T01:50:00.312Z,91.51
2023-04-02T01:53:08.587Z,91.99
2023-04-02T01:56:14.646Z,91.07
2023-04-02T01:59:26.358Z,92.96
2023-04-02T02:02:43.330Z,90.45
2023-04-02T02:05:46.618Z,90.73
2023-04-02T02:09:03.809Z,92.89
2023-04-02T02:12:06.674Z,90.97
2023-04-02T02:15:17.114Z,91.19
2023-04-02T02:18:23.537Z,93.80
2023-04-02T02:21:54.561Z,96.27
2023-04-02T02:25:01.986Z,96.41
2023-04-02T02:28:23.564Z,98.63
2023-04-02T02:31:33.490Z,98.91
2023-04-02T02:34:46.096Z,97.91
2023-04-02T02:37:54.979Z,96.81
2023-04-02T02:41:03.701Z,97.68
2023-04-02T02:44:10.070Z,97.05
2023-04-02T02:47:23.622Z,96.99
2023-04-02T02:50:32.352Z,97.47
2023-04-02T02:53:50.211Z,97.71
2023-04-02T02:56:58.390Z,95.93
2023-04-02T03:00:02.085Z,97.93
2023-04-02T03:03:25.668Z,98.93
2023-04-02T03:06:32.115Z,98.66
2023-04-02T03:09:48.871Z,98.75
2023-04-02T03:13:00.766Z,100.00
2023-04-02T03:16:29.200Z,100.00
2023-04-02T03:19:53.032Z,100.00
2023-04-02T03:23:00.791Z,100.00
2023-04-02T03:26:24.696Z,99.27
2023-04-02T03:29:31.363Z,99.49
2023-04-02T03:32:40.799Z,99.77
2023-04-02T03:36:00.263Z,100.00
2023-04-02T03:43:27.448Z,100.00
2023-04-02T03:46:35.833Z,100.00
2023-04-02T03:49:55.202Z,100.00
2023-04-02T03:52:58.583Z,100.00
2023-04-02T03:56:02.497Z,99.39
2023-04-02T03:59:08.186Z,100.00
2023-04-02T04:02:34.719Z,100.00
2023-04-02T04:05:53.464Z,100.00
2023-04-02T04:09:11.930Z,100.00
2023-04-02T04:12:47.162Z,100.00
2023-04-02T04:15:58.427Z,100.00
2023-04-02T04:19:21.940Z,100.00
2023-04-02T04:22:40.855Z,100.00
2023-04-02T04:25:59.897Z,100.00
2023-04-02T04:29:15.809Z,100.00
2023-04-02T04:32:39.404Z,100.00
2023-04-02T04:35:57.143Z,100.00
2023-04-02T04:39:07.445Z,100.00
2023-04-02T04:42:23.983Z,100.00
2023-04-02T04:46:03.608Z,100.00
2023-04-02T04:49:35.895Z,100.00
2023-04-02T04:52:47.756Z,100.00
2023-04-02T04:55:54.389Z,100.00
2023-04-02T04:59:18.710Z,100.00
2023-04-02T05:02:47.565Z,100.00
2023-04-02T05:05:52.623Z,100.00
2023-04-02T05:08:59.260Z,100.00
2023-04-02T05:12:32.388Z,100.00
2023-04-02T05:15:42.158Z,100.00
2023-04-02T05:19:03.991Z,100.00
2023-04-02T05:22:29.437Z,100.00
2023-04-02T05:25:35.247Z,100.00
2023-04-02T05:29:09.932Z,100.00
2023-04-02T05:32:25.826Z,100.00
2023-04-02T05:35:36.506Z,100.00
2023-04-02T05:38:44.129Z,100.00
2023-04-02T05:41:47.533Z,100.00
2023-04-02T05:45:25.240Z,100.00
2023-04-02T05:48:40.981Z,100.00
2023-04-02T05:51:50.378Z,100.00
2023-04-02T05:54:56.741Z,100.00
2023-04-02T05:58:34.580Z,100.00
2023-04-02T06:01:58.927Z,100.00
2023-04-02T06:05:28.180Z,100.00
2023-04-02T06:08:42.956Z,100.00
2023-04-02T06:12:39.473Z,100.00
2023-04-02T06:15:42.399Z,100.00
2023-04-02T06:18:48.746Z,100.00
2023-04-02T06:21:53.106Z,100.00
2023-04-02T06:25:24.079Z,100.00
2023-04-02T06:28:59.502Z,100.00
2023-04-02T06:32:07.481Z,100.00
2023-04-02T06:35:14.506Z,100.00
2023-04-02T06:41:45.706Z,100.00
2023-04-02T06:45:05.321Z,100.00
2023-04-02T06:48:21.620Z,100.00
2023-04-02T06:51:32.907Z,100.00
2023-04-02T06:54:36.962Z,100.00
2023-04-02T06:58:01.050Z,100.00
2023-04-02T07:01:07.200Z,100.00
2023-04-02T07:04:15.777Z,100.00
2023-04-02T07:07:20.100Z,100.00
2023-04-02T07:10:30.468Z,100.00
2023-04-02T07:13:32.124Z,100.00
2023-04-02T07:16:36.617Z,100.00
2023-04-02T07:19:38.190Z,100.00
2023-04-02T07:22:49.899Z,100.00
2023-04-02T07:25:54.523Z,100.00
2023-04-02T07:28:56.715Z,100.00
2023-04-02T07:35:16.949Z,100.00
2023-04-02T07:38:19.651Z,100.00
2023-04-02T07:41:27.635Z,100.00
2023-04-02T07:44:36.762Z,100.00
2023-04-02T07:47:42.249Z,100.00
2023-04-02T07:50:44.385Z,100.00
2023-04-02T07:53:50.166Z,100.00
2023-04-02T07:56:51.889Z,100.00
2023-04-02T07:59:57.122Z,100.00
2023-04-02T08:02:58.663Z,100.00
2023-04-02T08:06:00.328Z,100.00
2023-04-02T08:09:02.142Z,100.00
2023-04-02T08:12:03.907Z,100.00
2023-04-02T08:15:07.433Z,100.00
2023-04-02T08:18:09.840Z,100.00
2023-04-02T08:21:11.584Z,99.87
2023-04-02T08:24:19.158Z,99.16
2023-04-02T08:27:23.052Z,100.00
2023-04-02T08:30:27.692Z,98.93
2023-04-02T08:33:29.180Z,100.00
2023-04-02T08:36:37.686Z,99.35
2023-04-02T08:39:39.893Z,100.00
2023-04-02T08:42:51.018Z,99.21
2023-04-02T08:46:50.947Z,98.32
2023-04-02T08:50:00.431Z,96.79
2023-04-02T08:53:05.934Z,96.69
2023-04-02T08:56:24.008Z,95.52
2023-04-02T08:59:35.951Z,92.98
2023-04-02T09:02:47.160Z,94.24
2023-04-02T09:05:50.867Z,96.81
2023-04-02T09:08:57.053Z,96.13
2023-04-02T09:12:04.077Z,93.28
2023-04-02T09:15:11.904Z,95.20
2023-04-02T09:18:16.505Z,94.81
2023-04-02T09:21:18.428Z,93.21
2023-04-02T09:24:22.263Z,96.32
2023-04-02T09:27:35.871Z,90.83
2023-04-02T09:34:34.705Z,88.09
2023-04-02T09:37:37.188Z,85.92
2023-04-02T09:40:53.826Z,85.56
2023-04-02T09:44:26.005Z,82.63
2023-04-02T09:47:33.572Z,83.49
2023-04-02T09:50:35.300Z,82.77
2023-04-02T09:53:41.845Z,86.04
2023-04-02T09:57:25.760Z,85.54
2023-04-02T10:00:41.748Z,85.73
2023-04-02T10:03:43.736Z,86.78
2023-04-02T10:10:30.657Z,86.40
2023-04-02T10:13:53.219Z,86.70
2023-04-02T10:17:02.079Z,84.76
2023-04-02T10:20:19.505Z,84.98
2023-04-02T10:23:46.844Z,84.08
2023-04-02T10:27:06.833Z,83.62
2023-04-02T10:30:31.530Z,82.69
2023-04-02T10:33:45.341Z,81.75
2023-04-02T10:36:54.924Z,84.33
2023-04-02T10:40:21.403Z,80.57
2023-04-02T10:44:12.708Z,80.21
2023-04-02T10:47:48.121Z,81.14
2023-04-02T10:50:57.276Z,80.13
2023-04-02T10:54:28.014Z,80.35
2023-04-02T10:57:40.977Z,78.92
2023-04-02T11:00:47.556Z,78.69
2023-04-02T11:03:57.986Z,77.13
2023-04-02T11:07:18.192Z,78.18
2023-04-02T11:10:21.245Z,78.68
2023-04-02T11:13:31.289Z,74.04
2023-04-02T11:16:33.449Z,73.31
2023-04-02T11:19:41.185Z,73.70
2023-04-02T11:22:42.893Z,71.83
2023-04-02T11:25:45.636Z,70.53
2023-04-02T11:28:47.181Z,68.80
2023-04-02T11:32:33.845Z,69.61
2023-04-02T11:35:38.330Z,72.25
2023-04-02T11:38:52.224Z,72.35
2023-04-02T11:42:21.904Z,73.21
2023-04-02T11:45:52.612Z,73.24
2023-04-02T11:49:34.429Z,68.68
2023-04-02T11:52:49.646Z,70.56
2023-04-02T11:55:53.981Z,70.75
2023-04-02T12:03:05.716Z,68.80
2023-04-02T12:06:37.595Z,71.34
2023-04-02T12:10:02.949Z,73.15
2023-04-02T12:13:04.500Z,72.18
2023-04-02T12:16:11.946Z,71.04
2023-04-02T12:19:17.048Z,72.87
2023-04-02T12:22:22.133Z,71.27
2023-04-02T12:25:31.478Z,72.92
2023-04-02T12:28:37.032Z,73.41
2023-04-02T12:31:43.194Z,71.29
2023-04-02T12:34:46.463Z,71.69
2023-04-02T12:37:52.565Z,73.96
2023-04-02T12:41:06.332Z,70.66
2023-04-02T12:44:21.257Z,71.09
2023-04-02T12:47:24.227Z,70.44
2023-04-02T12:50:28.144Z,71.65
2023-04-02T12:53:35.984Z,72.08
2023-04-02T12:56:40.756Z,76.34
2023-04-02T12:59:45.857Z,73.36
2023-04-02T13:02:50.423Z,75.01
2023-04-02T13:05:56.976Z,72.57
2023-04-02T13:09:04.119Z,72.69
2023-04-02T13:12:09.714Z,73.26
2023-04-02T13:15:25.099Z,72.57
2023-04-02T13:18:27.832Z,72.96
2023-04-02T13:21:30.769Z,72.11
2023-04-02T13:24:36.320Z,73.01
2023-04-02T13:27:38.088Z,72.37
2023-04-02T13:30:42.211Z,72.30
2023-04-02T13:33:46.128Z,72.05
2023-04-02T13:36:48.031Z,72.97
2023-04-02T13:39:49.495Z,71.77
2023-04-02T13:42:51.828Z,71.84
2023-04-02T13:46:07.750Z,72.88
2023-04-02T13:49:12.933Z,73.54
2023-04-02T13:52:20.548Z,72.15
2023-04-02T13:55:26.885Z,72.63
2023-04-02T13:58:31.388Z,72.70
2023-04-02T14:01:41.926Z,72.42
2023-04-02T14:04:50.727Z,68.62
2023-04-02T14:08:35.923Z,67.99
2023-04-02T14:19:25.053Z,69.14
2023-04-02T14:22:51.255Z,70.43
2023-04-02T14:26:14.149Z,70.54
2023-04-02T14:29:26.353Z,71.97
2023-04-02T14:32:38.996Z,72.07
2023-04-02T14:36:33.080Z,75.89
2023-04-02T14:39:57.428Z,76.23
2023-04-02T14:43:21.264Z,73.30
2023-04-02T14:46:28.833Z,71.42
2023-04-02T14:49:41.729Z,71.72
2023-04-02T14:52:48.457Z,73.52
2023-04-02T14:55:52.727Z,72.63
2023-04-02T14:59:20.425Z,71.55
2023-04-02T15:02:43.533Z,72.04
2023-04-02T15:05:52.699Z,71.72
2023-04-02T15:09:08.776Z,72.71
2023-04-02T15:12:38.618Z,73.11
2023-04-02T15:15:46.127Z,74.12
2023-04-02T15:18:52.371Z,72.67
2023-04-02T15:22:18.534Z,74.52
2023-04-02T15:25:58.567Z,79.93
2023-04-02T15:29:04.308Z,81.43
2023-04-02T15:32:25.846Z,82.25
2023-04-02T15:35:27.396Z,84.02
2023-04-02T15:38:43.503Z,85.98
2023-04-02T15:42:22.505Z,85.23
2023-04-02T15:45:41.313Z,88.44
2023-04-02T15:49:09.677Z,88.95
2023-04-02T15:52:48.956Z,89.77
2023-04-02T15:56:09.790Z,89.59
2023-04-02T15:59:49.087Z,89.84
2023-04-02T16:03:20.869Z,93.24
2023-04-02T16:06:28.971Z,92.59
2023-04-02T16:10:14.163Z,92.60
2023-04-02T16:13:33.163Z,92.75
2023-04-02T16:16:36.071Z,92.06
2023-04-02T16:20:20.286Z,92.96
2023-04-02T16:23:31.689Z,94.40
2023-04-02T16:27:07.767Z,95.67
2023-04-02T16:30:24.977Z,96.42
2023-04-02T16:34:05.952Z,97.17
2023-04-02T16:37:51.890Z,98.28
2023-04-02T16:41:31.879Z,98.94
2023-04-02T16:44:56.410Z,100.00
2023-04-02T16:48:35.315Z,100.00
2023-04-02T16:52:17.223Z,100.00
2023-04-02T16:55:24.552Z,100.00
2023-04-02T16:58:54.310Z,100.00
2023-04-02T17:02:18.558Z,100.00
2023-04-02T17:05:40.598Z,100.00
2023-04-02T17:09:18.794Z,100.00
2023-04-02T17:12:39.770Z,100.00
2023-04-02T17:16:07.687Z,100.00
2023-04-02T17:19:11.959Z,100.00
2023-04-02T17:22:18.086Z,100.00
2023-04-02T17:25:26.018Z,100.00
2023-04-02T17:28:42.418Z,100.00
2023-04-02T17:31:46.319Z,100.00
2023-04-02T17:34:50.949Z,100.00
2023-04-02T17:38:29.886Z,100.00
2023-04-02T17:41:39.004Z,100.00
2023-04-02T17:45:03.015Z,100.00
2023-04-02T17:48:41.144Z,100.00
2023-04-02T17:51:54.643Z,100.00
2023-04-02T17:55:14.479Z,100.00
2023-04-02T17:58:16.339Z,100.00
2023-04-02T18:01:50.658Z,100.00
2023-04-02T18:05:18.287Z,100.00
2023-04-02T18:09:03.740Z,100.00
2023-04-02T18:12:36.564Z,100.00
2023-04-02T18:16:02.001Z,100.00
2023-04-02T18:19:13.035Z,100.00
2023-04-02T18:22:29.318Z,100.00
2023-04-02T18:25:49.318Z,100.00
2023-04-02T18:29:12.850Z,100.00
2023-04-02T18:32:51.425Z,100.00
2023-04-02T18:36:14.799Z,100.00
2023-04-02T18:39:48.918Z,100.00
2023-04-02T18:43:02.691Z,100.00
2023-04-02T18:46:25.572Z,100.00
2023-04-02T18:49:36.909Z,100.00
2023-04-02T18:52:39.656Z,100.00
2023-04-02T18:56:01.500Z,100.00
2023-04-02T18:59:30.821Z,100.00
2023-04-02T19:02:41.172Z,100.00
2023-04-02T19:05:55.419Z,100.00
2023-04-02T19:09:07.982Z,100.00
2023-04-02T19:12:20.678Z,100.00
2023-04-02T19:15:43.279Z,100.00
2023-04-02T19:19:38.174Z,100.00
2023-04-02T19:22:53.645Z,100.00
2023-04-02T19:26:07.321Z,100.00
2023-04-02T19:29:38.183Z,100.00
2023-04-02T19:33:11.881Z,100.00
2023-04-02T19:36:44.366Z,100.00
2023-04-02T19:40:11.612Z,100.00
2023-04-02T19:43:13.419Z,100.00
2023-04-02T19:46:27.397Z,100.00
2023-04-02T19:49:34.703Z,100.00
2023-04-02T19:52:42.351Z,100.00
2023-04-02T19:55:44.747Z,100.00
2023-04-02T19:58:46.264Z,100.00
2023-04-02T20:01:49.354Z,100.00
2023-04-02T20:04:50.952Z,100.00
2023-04-02T20:07:52.519Z,100.00
2023-04-02T20:11:00.582Z,100.00
2023-04-02T20:14:04.960Z,100.00
2023-04-02T20:17:13.741Z,100.00
2023-04-02T20:20:16.319Z,100.00
2023-04-02T20:23:19.975Z,100.00
2023-04-02T20:26:22.382Z,100.00
2023-04-02T20:29:27.754Z,100.00
2023-04-02T20:32:32.339Z,100.00
2023-04-02T20:35:41.720Z,100.00
2023-04-02T20:38:43.808Z,100.00
2023-04-02T20:41:51.098Z,100.00
2023-04-02T20:44:52.602Z,100.00
2023-04-02T20:48:07.705Z,100.00
2023-04-02T20:51:12.920Z,100.00
2023-04-02T20:54:14.485Z,100.00
2023-04-02T20:57:25.310Z,100.00
2023-04-02T21:00:29.988Z,99.98
2023-04-02T21:03:31.447Z,100.00
2023-04-02T21:06:40.391Z,100.00
2023-04-02T21:09:43.431Z,99.77
2023-04-02T21:12:48.973Z,99.22
2023-04-02T21:15:50.660Z,97.66
2023-04-02T21:18:52.936Z,97.58
2023-04-02T21:21:56.920Z,98.22
2023-04-02T21:25:06.822Z,96.06
2023-04-02T21:28:08.350Z,96.65
2023-04-02T21:31:16.355Z,96.13
2023-04-02T21:34:18.158Z,96.39
2023-04-02T21:37:19.605Z,95.45
2023-04-02T21:40:21.126Z,95.04
2023-04-02T21:43:25.738Z,94.83
2023-04-02T21:46:30.368Z,96.00
2023-04-02T21:49:32.054Z,95.50
2023-04-02T21:52:35.531Z,95.71
2023-04-02T21:55:50.485Z,94.78
2023-04-02T21:58:53.667Z,94.70
2023-04-02T22:01:55.425Z,93.99
2023-04-02T22:08:13.156Z,92.64
2023-04-02T22:11:26.525Z,91.36
2023-04-02T22:14:31.474Z,91.15
2023-04-02T22:17:33.006Z,92.13
2023-04-02T22:20:41.087Z,91.51
2023-04-02T22:23:50.572Z,93.78
2023-04-02T22:26:52.094Z,93.16
2023-04-02T22:33:13.840Z,93.47
2023-04-02T22:36:17.420Z,94.11
2023-04-02T22:39:21.268Z,93.52
2023-04-02T22:45:47.502Z,91.43
2023-04-02T22:48:50.307Z,91.32
2023-04-02T22:51:54.939Z,91.72
2023-04-02T22:54:56.470Z,91.31
2023-04-02T22:58:05.446Z,91.83
2023-04-02T23:01:14.949Z,92.16
2023-04-02T23:04:16.520Z,91.27
2023-04-02T23:07:18.064Z,90.70
2023-04-02T23:10:28.919Z,91.80
2023-04-02T23:13:33.716Z,91.29
2023-04-02T23:16:37.698Z,91.26
2023-04-02T23:19:41.432Z,90.98
2023-04-02T23:22:51.504Z,91.34
2023-04-02T23:26:14.821Z,91.75
2023-04-02T23:29:16.359Z,91.49
2023-04-02T23:32:19.501Z,91.07
2023-04-02T23:35:28.043Z,91.12
2023-04-02T23:38:31.853Z,90.82
2023-04-02T23:41:45.673Z,90.61
2023-04-02T23:44:47.677Z,90.27
2023-04-02T23:47:49.222Z,90.07
2023-04-02T23:50:50.834Z,89.19
2023-04-02T23:53:55.214Z,88.68
2023-04-02T23:56:56.804Z,89.10
2023-04-02T23:59:58.316Z,88.36
